createdAt,value
2023-01-07T00:01:41.572Z,8.35
2023-01-07T00:04:11.655Z,7.75
2023-01-07T00:06:40.038Z,9.13
2023-01-07T00:09:10.016Z,7.68
2023-01-07T00:11:38.410Z,7.15
2023-01-07T00:14:07.485Z,7.65
2023-01-07T00:16:35.874Z,8.13
2023-01-07T00:19:04.289Z,8.27
2023-01-07T00:21:31.376Z,8.85
2023-01-07T00:24:00.503Z,8.57
2023-01-07T00:26:30.534Z,6.72
2023-01-07T00:28:57.664Z,9.90
2023-01-07T00:31:29.855Z,8.00
2023-01-07T00:33:56.896Z,6.95
2023-01-07T00:36:26.654Z,7.47
2023-01-07T00:39:01.985Z,7.75
2023-01-07T00:41:29.581Z,8.18
2023-01-07T00:43:56.444Z,6.88
2023-01-07T00:46:23.155Z,7.35
2023-01-07T00:48:50.365Z,7.65
2023-01-07T00:51:18.057Z,7.22
2023-01-07T00:53:44.996Z,6.45
2023-01-07T00:56:12.702Z,6.90
2023-01-07T00:58:39.279Z,6.97
2023-01-07T01:01:06.092Z,6.40
2023-01-07T01:03:33.782Z,6.65
2023-01-07T01:06:05.288Z,8.02
2023-01-07T01:08:32.083Z,7.93
2023-01-07T01:11:08.549Z,5.50
2023-01-07T01:13:35.405Z,11.45
2023-01-07T01:16:06.688Z,7.28
2023-01-07T01:18:33.276Z,7.60
2023-01-07T01:21:06.969Z,6.85
2023-01-07T01:23:35.966Z,6.22
2023-01-07T01:26:10.819Z,8.20
2023-01-07T01:28:38.006Z,6.57
2023-01-07T01:31:05.421Z,7.18
2023-01-07T01:33:42.281Z,7.68
2023-01-07T01:36:12.940Z,7.07
2023-01-07T01:38:40.402Z,7.60
2023-01-07T01:41:07.566Z,7.68
2023-01-07T01:43:39.663Z,6.70
2023-01-07T01:46:18.890Z,6.22
2023-01-07T01:48:52.828Z,6.97
2023-01-07T01:51:24.094Z,5.38
2023-01-07T01:53:52.031Z,6.70
2023-01-07T01:56:25.827Z,6.05
2023-01-07T01:58:58.321Z,5.97
2023-01-07T02:01:25.293Z,11.90
2023-01-07T02:03:52.940Z,6.72
2023-01-07T02:06:26.420Z,6.82
2023-01-07T02:08:54.659Z,9.70
2023-01-07T02:11:41.189Z,7.22
2023-01-07T02:14:20.948Z,8.00
2023-01-07T02:16:57.601Z,6.25
2023-01-07T02:19:46.832Z,7.82
2023-01-07T02:22:48.213Z,7.32
2023-01-07T02:25:58.347Z,5.95
2023-01-07T02:28:55.662Z,7.28
2023-01-07T02:31:25.002Z,5.82
2023-01-07T02:34:04.938Z,6.82
2023-01-07T02:36:46.979Z,6.40
2023-01-07T02:39:47.960Z,7.20
2023-01-07T02:42:43.512Z,6.55
2023-01-07T02:46:02.952Z,6.55
2023-01-07T02:48:31.792Z,6.82
2023-01-07T02:50:58.404Z,6.85
2023-01-07T02:53:25.306Z,7.65
2023-01-07T02:55:58.441Z,8.98
2023-01-07T02:58:41.955Z,9.40
2023-01-07T03:01:26.529Z,7.63
2023-01-07T03:04:05.437Z,6.88
2023-01-07T03:07:05.626Z,6.65
2023-01-07T03:09:51.175Z,5.80
2023-01-07T03:12:31.485Z,5.93
2023-01-07T03:15:07.837Z,5.13
2023-01-07T03:17:43.436Z,9.80
2023-01-07T03:20:12.957Z,5.00
2023-01-07T03:22:42.635Z,7.55
2023-01-07T03:25:12.944Z,6.22
2023-01-07T03:27:41.424Z,4.88
2023-01-07T03:30:13.558Z,6.13
2023-01-07T03:32:49.536Z,6.43
2023-01-07T03:35:18.713Z,7.28
2023-01-07T03:37:46.879Z,4.95
2023-01-07T03:40:13.796Z,5.50
2023-01-07T03:42:41.887Z,4.93
2023-01-07T03:45:37.757Z,6.50
2023-01-07T03:48:04.818Z,4.90
2023-01-07T03:50:36.506Z,7.05
2023-01-07T03:53:03.878Z,6.18
2023-01-07T03:55:33.806Z,6.22
2023-01-07T03:58:00.784Z,6.18
2023-01-07T04:00:27.507Z,7.78
2023-01-07T04:03:02.340Z,7.07
2023-01-07T04:05:36.656Z,5.65
2023-01-07T04:08:03.299Z,5.20
2023-01-07T04:10:33.621Z,4.78
2023-01-07T04:13:00.297Z,6.70
2023-01-07T04:15:26.885Z,9.05
2023-01-07T04:17:53.606Z,4.82
2023-01-07T04:20:20.464Z,6.43
2023-01-07T04:22:46.979Z,6.25
2023-01-07T04:25:13.773Z,10.95
2023-01-07T04:27:40.443Z,7.10
2023-01-07T04:30:09.117Z,4.82
2023-01-07T04:32:35.699Z,5.15
2023-01-07T04:35:02.301Z,5.82
2023-01-07T04:37:30.023Z,5.68
2023-01-07T04:39:57.149Z,6.97
2023-01-07T04:42:23.736Z,7.07
2023-01-07T04:44:50.312Z,5.13
2023-01-07T04:47:16.853Z,4.38
2023-01-07T04:49:43.429Z,4.50
2023-01-07T04:52:10.202Z,5.35
2023-01-07T04:54:38.069Z,5.88
2023-01-07T04:57:04.643Z,5.90
2023-01-07T04:59:31.257Z,4.35
2023-01-07T05:02:00.289Z,6.18
2023-01-07T05:04:27.113Z,5.18
2023-01-07T05:06:54.454Z,4.75
2023-01-07T05:09:23.539Z,5.45
2023-01-07T05:11:50.486Z,5.45
2023-01-07T05:14:17.677Z,6.63
2023-01-07T05:16:44.938Z,6.15
2023-01-07T05:19:11.847Z,5.78
2023-01-07T05:21:42.739Z,4.85
2023-01-07T05:24:10.784Z,4.57
2023-01-07T05:26:37.270Z,4.85
2023-01-07T05:29:04.223Z,4.63
2023-01-07T05:31:32.103Z,4.80
2023-01-07T05:33:58.785Z,6.70
2023-01-07T05:36:26.329Z,6.10
2023-01-07T05:38:53.971Z,5.60
2023-01-07T05:41:20.681Z,4.55
2023-01-07T05:43:47.321Z,6.65
2023-01-07T05:46:14.275Z,6.00
2023-01-07T05:48:41.168Z,7.28
2023-01-07T05:51:07.758Z,6.32
2023-01-07T05:53:34.410Z,4.10
2023-01-07T05:56:01.510Z,4.15
2023-01-07T05:58:28.594Z,4.57
2023-01-07T06:00:55.465Z,4.50
2023-01-07T06:03:22.555Z,3.67
2023-01-07T06:05:49.216Z,5.45
2023-01-07T06:08:16.106Z,3.50
2023-01-07T06:10:44.241Z,4.85
2023-01-07T06:13:10.835Z,5.38
2023-01-07T06:15:37.451Z,4.25
2023-01-07T06:18:04.099Z,6.35
2023-01-07T06:20:34.481Z,4.85
2023-01-07T06:23:03.123Z,5.00
2023-01-07T06:25:29.809Z,4.55
2023-01-07T06:27:58.142Z,5.70
2023-01-07T06:30:24.864Z,4.18
2023-01-07T06:32:51.395Z,3.40
2023-01-07T06:35:18.018Z,2.70
2023-01-07T06:37:44.583Z,3.33
2023-01-07T06:40:12.015Z,3.17
2023-01-07T06:42:38.592Z,3.53
2023-01-07T06:45:05.583Z,2.42
2023-01-07T06:47:32.182Z,3.22
2023-01-07T06:49:58.698Z,4.03
2023-01-07T06:52:25.254Z,4.18
2023-01-07T06:54:51.867Z,2.85
2023-01-07T06:57:22.466Z,4.25
2023-01-07T06:59:48.986Z,3.45
2023-01-07T07:02:24.157Z,2.67
2023-01-07T07:04:50.702Z,2.88
2023-01-07T07:07:17.506Z,2.53
2023-01-07T07:09:44.671Z,6.60
2023-01-07T07:12:11.835Z,3.58
2023-01-07T07:14:39.027Z,3.13
2023-01-07T07:17:06.325Z,3.35
2023-01-07T07:19:32.963Z,3.88
2023-01-07T07:21:59.475Z,4.05
2023-01-07T07:24:26.028Z,2.17
2023-01-07T07:26:52.513Z,2.22
2023-01-07T07:29:21.607Z,2.72
2023-01-07T07:31:48.375Z,3.00
2023-01-07T07:34:14.876Z,2.72
2023-01-07T07:36:41.398Z,5.65
2023-01-07T07:39:08.060Z,3.20
2023-01-07T07:41:34.608Z,2.75
2023-01-07T07:44:06.872Z,2.78
2023-01-07T07:46:33.857Z,2.88
2023-01-07T07:49:00.462Z,3.05
2023-01-07T07:51:27.135Z,3.15
2023-01-07T07:53:53.626Z,3.08
2023-01-07T07:56:20.238Z,4.90
2023-01-07T07:58:46.878Z,5.57
2023-01-07T08:01:13.550Z,2.97
2023-01-07T08:03:40.154Z,2.35
2023-01-07T08:06:07.180Z,2.95
2023-01-07T08:08:33.930Z,5.00
2023-01-07T08:11:00.419Z,2.80
2023-01-07T08:13:26.947Z,4.30
2023-01-07T08:15:53.561Z,1.80
2023-01-07T08:18:20.178Z,3.33
2023-01-07T08:20:47.239Z,1.80
2023-01-07T08:23:13.986Z,3.05
2023-01-07T08:25:40.605Z,2.45
2023-01-07T08:28:07.137Z,2.10
2023-01-07T08:30:33.698Z,3.17
2023-01-07T08:33:00.397Z,4.53
2023-01-07T08:35:27.013Z,2.50
2023-01-07T08:38:00.979Z,2.30
2023-01-07T08:40:27.478Z,2.05
2023-01-07T08:42:57.995Z,6.03
2023-01-07T08:45:24.604Z,2.38
2023-01-07T08:47:51.327Z,1.85
2023-01-07T08:50:20.158Z,1.95
2023-01-07T08:52:47.391Z,5.07
2023-01-07T08:55:14.068Z,2.67
2023-01-07T08:57:40.602Z,3.17
2023-01-07T09:00:07.780Z,2.60
2023-01-07T09:03:02.548Z,3.17
2023-01-07T09:05:29.348Z,1.90
2023-01-07T09:07:56.955Z,3.50
2023-01-07T09:10:24.214Z,3.22
2023-01-07T09:12:50.809Z,3.00
2023-01-07T09:15:17.589Z,3.53
2023-01-07T09:17:44.108Z,2.13
2023-01-07T09:20:10.745Z,2.63
2023-01-07T09:22:37.735Z,1.70
2023-01-07T09:25:06.080Z,2.38
2023-01-07T09:27:32.910Z,2.45
2023-01-07T09:29:59.463Z,2.30
2023-01-07T09:32:26.477Z,2.05
2023-01-07T09:34:53.153Z,4.10
2023-01-07T09:37:19.862Z,2.15
2023-01-07T09:39:46.342Z,2.88
2023-01-07T09:42:12.822Z,3.28
2023-01-07T09:45:08.150Z,3.35
2023-01-07T09:47:37.148Z,1.67
2023-01-07T09:50:14.586Z,3.25
2023-01-07T09:52:48.926Z,4.75
2023-01-07T09:55:21.064Z,3.05
2023-01-07T09:57:48.029Z,2.45
2023-01-07T10:00:22.258Z,2.00
2023-01-07T10:02:51.838Z,2.92
2023-01-07T10:05:18.336Z,1.92
2023-01-07T10:07:50.818Z,2.42
2023-01-07T10:10:26.453Z,2.13
2023-01-07T10:13:05.005Z,4.05
2023-01-07T10:15:47.119Z,1.80
2023-01-07T10:18:41.585Z,2.80
2023-01-07T10:21:27.529Z,1.35
2023-01-07T10:24:05.338Z,3.83
2023-01-07T10:26:39.306Z,2.38
2023-01-07T10:29:16.718Z,1.52
2023-01-07T10:31:45.616Z,2.97
2023-01-07T10:34:28.987Z,1.40
2023-01-07T10:37:27.601Z,2.08
2023-01-07T10:40:12.446Z,1.92
2023-01-07T10:43:13.210Z,2.53
2023-01-07T10:45:54.963Z,2.33
2023-01-07T10:48:48.934Z,1.63
2023-01-07T10:51:44.914Z,2.20
2023-01-07T10:54:29.445Z,2.17
2023-01-07T10:57:03.577Z,1.95
2023-01-07T10:59:30.487Z,2.17
2023-01-07T11:01:59.414Z,1.23
2023-01-07T11:04:26.542Z,2.58
2023-01-07T11:07:04.552Z,2.63
2023-01-07T11:09:35.305Z,1.73
2023-01-07T11:12:26.374Z,1.50
2023-01-07T11:14:56.685Z,1.50
2023-01-07T11:17:35.808Z,1.48
2023-01-07T11:20:04.300Z,2.00
2023-01-07T11:22:33.893Z,2.22
2023-01-07T11:25:02.528Z,2.88
2023-01-07T11:27:31.882Z,1.98
2023-01-07T11:30:20.012Z,1.20
2023-01-07T11:32:56.705Z,1.45
2023-01-07T11:35:23.729Z,2.60
2023-01-07T11:37:50.672Z,1.52
2023-01-07T11:40:22.171Z,2.63
2023-01-07T11:43:02.131Z,3.30
2023-01-07T11:45:33.031Z,5.13
2023-01-07T11:48:09.310Z,3.55
2023-01-07T11:50:41.827Z,1.30
2023-01-07T11:53:14.179Z,1.33
2023-01-07T11:55:57.104Z,1.08
2023-01-07T11:58:30.898Z,1.52
2023-01-07T12:01:13.161Z,2.10
2023-01-07T12:03:43.573Z,2.53
2023-01-07T12:06:24.416Z,1.05
2023-01-07T12:09:18.959Z,2.05
2023-01-07T12:11:45.999Z,1.95
2023-01-07T12:14:38.908Z,2.72
2023-01-07T12:17:17.606Z,2.75
2023-01-07T12:20:05.830Z,1.83
2023-01-07T12:22:41.041Z,3.47
2023-01-07T12:25:35.569Z,2.35
2023-01-07T12:28:06.925Z,2.13
2023-01-07T12:30:40.603Z,2.72
2023-01-07T12:33:17.672Z,1.77
2023-01-07T12:35:45.587Z,2.58
2023-01-07T12:38:14.797Z,3.05
2023-01-07T12:41:11.641Z,2.28
2023-01-07T12:44:03.206Z,2.78
2023-01-07T12:46:40.506Z,2.45
2023-01-07T12:49:15.018Z,2.28
2023-01-07T12:51:47.898Z,3.07
2023-01-07T12:54:16.849Z,2.92
2023-01-07T12:56:53.545Z,2.22
2023-01-07T12:59:45.700Z,2.28
2023-01-07T13:02:17.422Z,3.05
2023-01-07T13:04:49.769Z,3.35
2023-01-07T13:07:37.429Z,2.38
2023-01-07T13:10:12.915Z,2.00
2023-01-07T13:12:48.610Z,3.28
2023-01-07T13:15:26.841Z,2.33
2023-01-07T13:18:10.722Z,2.58
2023-01-07T13:21:04.728Z,3.00
2023-01-07T13:24:07.359Z,2.63
2023-01-07T13:26:43.061Z,2.67
2023-01-07T13:29:44.598Z,2.75
2023-01-07T13:32:34.167Z,2.90
2023-01-07T13:35:35.537Z,2.90
2023-01-07T13:38:12.974Z,4.03
2023-01-07T13:40:58.467Z,4.22
2023-01-07T13:43:49.426Z,3.33
2023-01-07T13:46:24.952Z,2.80
2023-01-07T13:48:54.187Z,2.65
2023-01-07T13:51:30.806Z,3.05
2023-01-07T13:53:57.872Z,2.83
2023-01-07T13:56:24.396Z,3.53
2023-01-07T13:58:58.036Z,3.78
2023-01-07T14:01:25.576Z,3.38
2023-01-07T14:03:53.512Z,4.28
2023-01-07T14:06:20.409Z,3.13
2023-01-07T14:08:51.392Z,3.70
2023-01-07T14:11:20.028Z,3.13
2023-01-07T14:14:01.814Z,3.08
2023-01-07T14:16:41.307Z,2.78
2023-01-07T14:19:31.815Z,2.38
2023-01-07T14:22:26.525Z,3.78
2023-01-07T14:25:07.931Z,5.32
2023-01-07T14:27:53.355Z,2.92
2023-01-07T14:30:23.513Z,3.05
2023-01-07T14:33:17.771Z,2.20
2023-01-07T14:35:54.812Z,2.47
2023-01-07T14:38:30.453Z,2.83
2023-01-07T14:41:02.965Z,3.90
2023-01-07T14:43:47.675Z,2.15
2023-01-07T14:46:23.314Z,2.47
2023-01-07T14:49:01.973Z,2.50
2023-01-07T14:51:47.252Z,3.80
2023-01-07T14:54:46.430Z,3.15
2023-01-07T14:57:36.031Z,3.67
2023-01-07T15:00:42.893Z,3.05
2023-01-07T15:05:53.187Z,2.55
2023-01-07T15:08:42.064Z,2.38
2023-01-07T15:11:39.543Z,3.92
2023-01-07T15:14:36.823Z,4.05
2023-01-07T15:17:03.948Z,2.42
2023-01-07T15:19:30.580Z,4.13
2023-01-07T15:22:25.507Z,3.03
2023-01-07T15:25:13.365Z,2.90
2023-01-07T15:28:04.333Z,2.35
2023-01-07T15:30:44.022Z,2.60
2023-01-07T15:33:34.573Z,3.67
2023-01-07T15:36:03.860Z,3.30
2023-01-07T15:38:44.385Z,4.18
2023-01-07T15:41:40.599Z,3.20
2023-01-07T15:46:44.448Z,3.97
2023-01-07T15:49:11.034Z,3.55
2023-01-07T15:51:43.078Z,5.03
2023-01-07T15:54:25.854Z,3.50
2023-01-07T15:56:55.654Z,2.92
2023-01-07T15:59:31.136Z,3.95
2023-01-07T16:02:22.142Z,3.15
2023-01-07T16:04:52.056Z,2.25
2023-01-07T16:07:23.342Z,2.75
2023-01-07T16:09:50.838Z,3.38
2023-01-07T16:12:36.229Z,2.50
2023-01-07T16:15:25.521Z,3.38
2023-01-07T16:17:52.811Z,2.67
2023-01-07T16:20:23.357Z,3.22
2023-01-07T16:22:50.678Z,2.97
2023-01-07T16:25:24.799Z,2.72
2023-01-07T16:27:51.667Z,4.93
2023-01-07T16:30:18.683Z,2.65
2023-01-07T16:32:46.237Z,2.58
2023-01-07T16:35:25.782Z,3.60
2023-01-07T16:37:53.752Z,2.33
2023-01-07T16:40:31.155Z,3.38
2023-01-07T16:42:57.664Z,3.38
2023-01-07T16:45:27.067Z,2.45
2023-01-07T16:48:19.903Z,2.35
2023-01-07T16:50:48.074Z,3.40
2023-01-07T16:53:33.543Z,2.67
2023-01-07T16:56:13.098Z,3.45
2023-01-07T16:58:53.001Z,3.00
2023-01-07T17:01:33.672Z,4.00
2023-01-07T17:04:07.229Z,2.80
2023-01-07T17:06:42.244Z,3.55
2023-01-07T17:09:35.403Z,3.63
2023-01-07T17:12:03.018Z,3.88
2023-01-07T17:14:38.190Z,2.95
2023-01-07T17:17:16.582Z,2.97
2023-01-07T17:20:12.289Z,4.05
2023-01-07T17:22:39.797Z,4.28
2023-01-07T17:25:28.307Z,2.83
2023-01-07T17:28:01.015Z,2.90
2023-01-07T17:30:36.002Z,4.82
2023-01-07T17:33:03.180Z,3.97
2023-01-07T17:35:29.870Z,4.03
2023-01-07T17:37:56.872Z,3.90
2023-01-07T17:40:23.397Z,4.53
2023-01-07T17:43:08.933Z,4.38
2023-01-07T17:45:35.481Z,4.50
2023-01-07T17:48:02.321Z,2.90
2023-01-07T17:50:36.079Z,5.13
2023-01-07T17:53:04.356Z,3.78
2023-01-07T17:55:35.543Z,3.30
2023-01-07T17:58:02.035Z,2.90
2023-01-07T18:00:31.145Z,3.30
2023-01-07T18:02:58.185Z,3.50
2023-01-07T18:05:26.242Z,3.50
2023-01-07T18:07:53.031Z,3.60
2023-01-07T18:10:28.715Z,3.30
2023-01-07T18:12:55.419Z,4.00
2023-01-07T18:15:25.486Z,3.35
2023-01-07T18:17:52.572Z,4.70
2023-01-07T18:20:21.291Z,3.13
2023-01-07T18:22:48.801Z,2.78
2023-01-07T18:25:18.234Z,3.53
2023-01-07T18:27:45.130Z,3.50
2023-01-07T18:30:15.240Z,4.32
2023-01-07T18:32:42.284Z,4.40
2023-01-07T18:35:09.816Z,3.72
2023-01-07T18:37:36.774Z,3.78
2023-01-07T18:40:05.411Z,3.80
2023-01-07T18:42:34.281Z,3.50
2023-01-07T18:45:01.775Z,3.65
2023-01-07T18:47:28.265Z,3.65
2023-01-07T18:49:54.898Z,3.20
2023-01-07T18:52:21.441Z,4.47
2023-01-07T18:54:48.213Z,4.43
2023-01-07T18:57:14.819Z,3.38
2023-01-07T18:59:41.648Z,3.50
2023-01-07T19:02:17.776Z,2.75
2023-01-07T19:04:44.480Z,4.10
2023-01-07T19:07:11.193Z,2.42
2023-01-07T19:09:37.846Z,3.15
2023-01-07T19:12:05.983Z,3.00
2023-01-07T19:14:34.182Z,3.35
2023-01-07T19:17:00.791Z,2.65
2023-01-07T19:19:32.032Z,3.15
2023-01-07T19:22:00.959Z,5.30
2023-01-07T19:24:27.479Z,5.70
2023-01-07T19:26:54.015Z,3.88
2023-01-07T19:29:20.667Z,4.78
2023-01-07T19:31:47.407Z,2.65
2023-01-07T19:34:14.949Z,3.42
2023-01-07T19:36:46.490Z,3.45
2023-01-07T19:39:16.910Z,3.10
2023-01-07T19:41:44.111Z,4.80
2023-01-07T19:44:11.436Z,2.92
2023-01-07T19:46:40.451Z,3.88
2023-01-07T19:49:07.893Z,2.90
2023-01-07T19:51:36.041Z,2.47
2023-01-07T19:54:03.270Z,3.70
2023-01-07T19:56:30.888Z,5.15
2023-01-07T19:58:59.046Z,3.35
2023-01-07T20:01:28.270Z,3.17
2023-01-07T20:03:57.126Z,4.03
2023-01-07T20:06:29.161Z,3.65
2023-01-07T20:08:58.098Z,3.35
2023-01-07T20:11:25.640Z,3.92
2023-01-07T20:13:52.190Z,3.83
2023-01-07T20:16:23.987Z,2.53
2023-01-07T20:18:52.982Z,2.72
2023-01-07T20:21:21.957Z,3.20
2023-01-07T20:23:48.800Z,2.33
2023-01-07T20:26:20.275Z,2.38
2023-01-07T20:28:47.371Z,3.15
2023-01-07T20:31:15.841Z,2.67
2023-01-07T20:33:43.258Z,2.25
2023-01-07T20:36:14.314Z,4.15
2023-01-07T20:38:42.072Z,2.10
2023-01-07T20:41:12.890Z,2.35
2023-01-07T20:43:39.375Z,2.03
2023-01-07T20:46:07.605Z,2.50
2023-01-07T20:48:35.029Z,2.10
2023-01-07T20:51:08.685Z,2.17
2023-01-07T20:53:37.111Z,2.10
2023-01-07T20:56:05.103Z,2.00
2023-01-07T20:58:34.003Z,2.38
2023-01-07T21:01:22.499Z,2.15
2023-01-07T21:03:49.426Z,2.28
2023-01-07T21:06:17.940Z,3.25
2023-01-07T21:08:46.408Z,2.33
2023-01-07T21:11:15.570Z,1.98
2023-01-07T21:13:42.669Z,2.63
2023-01-07T21:16:10.025Z,1.83
2023-01-07T21:18:36.625Z,2.45
2023-01-07T21:21:10.230Z,2.72
2023-01-07T21:23:36.836Z,2.33
2023-01-07T21:26:03.485Z,3.42
2023-01-07T21:28:30.001Z,2.22
2023-01-07T21:31:00.905Z,2.67
2023-01-07T21:33:27.430Z,3.67
2023-01-07T21:35:53.972Z,2.00
2023-01-07T21:38:20.459Z,3.35
2023-01-07T21:40:47.014Z,3.67
2023-01-07T21:43:13.521Z,2.22
2023-01-07T21:45:40.257Z,3.20
2023-01-07T21:48:06.883Z,3.38
2023-01-07T21:50:33.407Z,3.63
2023-01-07T21:52:59.986Z,1.95
2023-01-07T21:55:26.473Z,3.47
2023-01-07T21:57:52.957Z,3.75
2023-01-07T22:00:19.591Z,2.92
2023-01-07T22:02:46.188Z,2.58
2023-01-07T22:05:12.798Z,3.08
2023-01-07T22:07:39.441Z,2.67
2023-01-07T22:10:06.387Z,2.67
2023-01-07T22:12:33.014Z,2.17
2023-01-07T22:14:59.567Z,3.60
2023-01-07T22:17:26.757Z,4.63
2023-01-07T22:19:53.345Z,3.15
2023-01-07T22:22:20.909Z,3.13
2023-01-07T22:24:47.607Z,4.63
2023-01-07T22:27:14.634Z,2.17
2023-01-07T22:29:42.311Z,2.42
2023-01-07T22:32:09.017Z,3.67
2023-01-07T22:34:35.635Z,3.45
2023-01-07T22:37:10.729Z,2.63
2023-01-07T22:39:53.672Z,2.83
2023-01-07T22:42:30.543Z,2.55
2023-01-07T22:45:02.699Z,2.95
2023-01-07T22:47:34.923Z,2.40
2023-01-07T22:50:03.906Z,5.07
2023-01-07T22:52:30.633Z,2.75
2023-01-07T22:54:58.157Z,2.90
2023-01-07T22:57:25.275Z,4.10
2023-01-07T22:59:51.791Z,3.25
2023-01-07T23:02:18.342Z,2.55
2023-01-07T23:04:44.846Z,3.20
2023-01-07T23:07:11.422Z,3.03
2023-01-07T23:09:37.968Z,3.33
2023-01-07T23:12:04.568Z,3.20
2023-01-07T23:14:32.408Z,3.03
2023-01-07T23:16:59.504Z,3.72
2023-01-07T23:19:26.116Z,4.30
2023-01-07T23:21:54.167Z,4.13
2023-01-07T23:24:21.774Z,4.47
2023-01-07T23:26:52.132Z,3.33
2023-01-07T23:29:19.025Z,3.50
2023-01-07T23:31:45.793Z,4.25
2023-01-07T23:34:14.097Z,3.33
2023-01-07T23:36:40.665Z,3.10
2023-01-07T23:39:07.330Z,4.15
2023-01-07T23:41:33.869Z,5.40
2023-01-07T23:44:00.432Z,5.03
2023-01-07T23:46:27.027Z,4.35
2023-01-07T23:48:53.561Z,4.78
2023-01-07T23:51:21.153Z,6.45
2023-01-07T23:53:48.629Z,5.20
2023-01-07T23:56:18.898Z,4.75
2023-01-07T23:58:45.477Z,4.85
